Ely Municipal Airport
KELO : rendu visible

Aérodrome :











RETROUVEZ-NOUS SUR...

 
LOGIN :

S'inscrire | Disclaimer

   EN    FR    IT 

 









Légende :    VFR   VFR Marginal   IFR   IFR Intensif   IFR Très Intensif
Visi : 
Plafond : 
>= 8 km
>= 3000ft
5 à 8 km
1000 à 3000 ft
1500m à 5 km
500 à 1000 ft
800 à 1500m
200 à 500 ft
< 800m
< 200 ft
Symboles :   Orages  Brouillard  Fortes neiges  Fortes précipitations  Vent > 20 kt






- Altitude de l'aérodrome : 1456 ft


KELO - Ely Municipal

DERNIER METAR :
  • 241635Z AUTO 27005KT 10SM SCT020 BKN026 M03/M07 A3025 RMK AO2

METARs EXPIRÉS :
  • 241615Z AUTO 28004KT 10SM SCT016 OVC024 M03/M07 A3025 RMK AO2
  • 241555Z AUTO 30008KT 10SM OVC016 M04/M07 A3025 RMK AO2
  • 241535Z AUTO 28007KT 10SM OVC014 M04/M07 A3025 RMK AO2
  • 241515Z AUTO 29009KT 10SM OVC014 M04/M07 A3025 RMK AO2
  • 241455Z AUTO 28006KT 10SM OVC012 M04/M06 A3025 RMK AO2
  • 241435Z AUTO 29005KT 10SM OVC012 M05/M06 A3024 RMK AO2
  • 241415Z AUTO 27008KT 10SM OVC010 M05/M06 A3024 RMK AO2

TAF N/A
FIR KZMP / Amérique du Nord



MET'MAP, la Météo Aéronautique d'un coup d'oeil ! - Copyright ORBIFLY Décembre 2007 - Disclaimer

ORBIFLY MET'MAP TEAM :

Programmation & Développement : Alexandra Zaïnal
Sur une idée originale de : Baudouin d'Aumeries
Assistance à la programmation : Marc-Olivier Méhu
Soutien technique & logistique : Manuel Goepfert

Contact : metmap@orbifly.com




SOURCES & CREDITS :

   NOAA       Earth
Advisory